sensor_id;sensor_type;location;lat;lon;timestamp;P1;durP1;ratioP1;P2;durP2;ratioP2
3261;SDS011;1643;47.746;9.000;2023-10-09T00:01:05;9.87;;;4.47;;
3261;SDS011;1643;47.746;9.000;2023-10-09T00:03:37;8.80;;;3.83;;
3261;SDS011;1643;47.746;9.000;2023-10-09T00:06:03;7.53;;;4.20;;
3261;SDS011;1643;47.746;9.000;2023-10-09T00:08:29;9.30;;;4.27;;
3261;SDS011;1643;47.746;9.000;2023-10-09T00:10:56;5.93;;;4.00;;
3261;SDS011;1643;47.746;9.000;2023-10-09T00:13:40;9.57;;;3.90;;
3261;SDS011;1643;47.746;9.000;2023-10-09T00:16:20;7.07;;;4.03;;
3261;SDS011;1643;47.746;9.000;2023-10-09T00:19:03;5.03;;;3.90;;
3261;SDS011;1643;47.746;9.000;2023-10-09T00:21:58;4.37;;;3.57;;
3261;SDS011;1643;47.746;9.000;2023-10-09T00:24:36;6.73;;;3.30;;
3261;SDS011;1643;47.746;9.000;2023-10-09T00:27:06;9.47;;;4.07;;
3261;SDS011;1643;47.746;9.000;2023-10-09T00:29:39;6.40;;;3.90;;
3261;SDS011;1643;47.746;9.000;2023-10-09T00:32:10;8.53;;;4.40;;
3261;SDS011;1643;47.746;9.000;2023-10-09T00:34:48;6.40;;;4.27;;
3261;SDS011;1643;47.746;9.000;2023-10-09T00:37:15;6.50;;;4.27;;
3261;SDS011;1643;47.746;9.000;2023-10-09T00:39:42;6.63;;;3.70;;
3261;SDS011;1643;47.746;9.000;2023-10-09T00:42:11;6.03;;;4.10;;
3261;SDS011;1643;47.746;9.000;2023-10-09T00:44:39;7.27;;;4.00;;
3261;SDS011;1643;47.746;9.000;2023-10-09T00:47:11;6.43;;;3.30;;
3261;SDS011;1643;47.746;9.000;2023-10-09T00:49:50;9.83;;;3.90;;
3261;SDS011;1643;47.746;9.000;2023-10-09T00:52:38;6.87;;;4.50;;
3261;SDS011;1643;47.746;9.000;2023-10-09T00:55:15;6.10;;;4.23;;
3261;SDS011;1643;47.746;9.000;2023-10-09T00:57:46;10.70;;;4.50;;
3261;SDS011;1643;47.746;9.000;2023-10-09T01:00:26;5.37;;;3.37;;
3261;SDS011;1643;47.746;9.000;2023-10-09T01:03:11;5.63;;;3.70;;
3261;SDS011;1643;47.746;9.000;2023-10-09T01:05:41;9.23;;;3.53;;
3261;SDS011;1643;47.746;9.000;2023-10-09T01:08:20;7.90;;;3.63;;
3261;SDS011;1643;47.746;9.000;2023-10-09T01:11:03;6.90;;;3.50;;
3261;SDS011;1643;47.746;9.000;2023-10-09T01:13:38;6.00;;;4.03;;
3261;SDS011;1643;47.746;9.000;2023-10-09T01:16:11;12.80;;;4.10;;
3261;SDS011;1643;47.746;9.000;2023-10-09T01:18:41;7.07;;;4.50;;
3261;SDS011;1643;47.746;9.000;2023-10-09T01:21:11;5.63;;;3.80;;
3261;SDS011;1643;47.746;9.000;2023-10-09T01:23:41;14.13;;;4.90;;
3261;SDS011;1643;47.746;9.000;2023-10-09T01:26:34;6.40;;;4.23;;
3261;SDS011;1643;47.746;9.000;2023-10-09T01:29:12;6.30;;;4.00;;
3261;SDS011;1643;47.746;9.000;2023-10-09T01:31:47;8.53;;;4.77;;
3261;SDS011;1643;47.746;9.000;2023-10-09T01:34:20;8.63;;;4.93;;
3261;SDS011;1643;47.746;9.000;2023-10-09T01:36:49;9.97;;;4.40;;
3261;SDS011;1643;47.746;9.000;2023-10-09T01:39:25;10.37;;;3.90;;
3261;SDS011;1643;47.746;9.000;2023-10-09T01:41:52;8.33;;;4.63;;
3261;SDS011;1643;47.746;9.000;2023-10-09T01:44:26;9.87;;;5.20;;
3261;SDS011;1643;47.746;9.000;2023-10-09T01:46:59;7.80;;;4.17;;
3261;SDS011;1643;47.746;9.000;2023-10-09T01:49:37;10.70;;;4.33;;
3261;SDS011;1643;47.746;9.000;2023-10-09T01:52:06;7.93;;;4.50;;
3261;SDS011;1643;47.746;9.000;2023-10-09T01:54:37;13.10;;;4.07;;
3261;SDS011;1643;47.746;9.000;2023-10-09T01:57:06;7.57;;;4.27;;
3261;SDS011;1643;47.746;9.000;2023-10-09T01:59:47;3.70;;;3.03;;
3261;SDS011;1643;47.746;9.000;2023-10-09T02:02:15;5.30;;;3.93;;
3261;SDS011;1643;47.746;9.000;2023-10-09T02:04:54;5.33;;;4.00;;
3261;SDS011;1643;47.746;9.000;2023-10-09T02:07:40;9.20;;;4.23;;
3261;SDS011;1643;47.746;9.000;2023-10-09T02:10:06;6.63;;;4.10;;
3261;SDS011;1643;47.746;9.000;2023-10-09T02:13:11;7.27;;;4.20;;
3261;SDS011;1643;47.746;9.000;2023-10-09T02:15:40;8.33;;;5.27;;
3261;SDS011;1643;47.746;9.000;2023-10-09T02:18:05;12.37;;;6.00;;
3261;SDS011;1643;47.746;9.000;2023-10-09T02:20:46;9.03;;;4.50;;
3261;SDS011;1643;47.746;9.000;2023-10-09T02:23:29;6.27;;;4.70;;
3261;SDS011;1643;47.746;9.000;2023-10-09T02:26:09;8.73;;;4.47;;
3261;SDS011;1643;47.746;9.000;2023-10-09T02:28:42;5.73;;;4.20;;
3261;SDS011;1643;47.746;9.000;2023-10-09T02:31:12;8.67;;;4.27;;
3261;SDS011;1643;47.746;9.000;2023-10-09T02:33:38;8.20;;;3.80;;
3261;SDS011;1643;47.746;9.000;2023-10-09T02:36:08;7.60;;;3.90;;
3261;SDS011;1643;47.746;9.000;2023-10-09T02:38:34;5.50;;;3.80;;
3261;SDS011;1643;47.746;9.000;2023-10-09T02:41:07;10.70;;;4.87;;
3261;SDS011;1643;47.746;9.000;2023-10-09T02:43:36;10.03;;;4.33;;
3261;SDS011;1643;47.746;9.000;2023-10-09T02:46:20;6.33;;;4.67;;
3261;SDS011;1643;47.746;9.000;2023-10-09T02:48:54;7.80;;;4.10;;
3261;SDS011;1643;47.746;9.000;2023-10-09T02:51:22;6.27;;;3.50;;
3261;SDS011;1643;47.746;9.000;2023-10-09T02:53:52;4.70;;;3.23;;
3261;SDS011;1643;47.746;9.000;2023-10-09T02:56:18;4.67;;;3.60;;
3261;SDS011;1643;47.746;9.000;2023-10-09T02:58:50;6.60;;;4.50;;
3261;SDS011;1643;47.746;9.000;2023-10-09T03:01:16;7.20;;;4.70;;
3261;SDS011;1643;47.746;9.000;2023-10-09T03:03:42;6.80;;;4.33;;
3261;SDS011;1643;47.746;9.000;2023-10-09T03:06:15;9.67;;;4.57;;
3261;SDS011;1643;47.746;9.000;2023-10-09T03:08:53;11.50;;;4.70;;
3261;SDS011;1643;47.746;9.000;2023-10-09T03:11:19;12.63;;;4.40;;
3261;SDS011;1643;47.746;9.000;2023-10-09T03:13:45;6.00;;;3.80;;
3261;SDS011;1643;47.746;9.000;2023-10-09T03:16:12;6.30;;;3.80;;
3261;SDS011;1643;47.746;9.000;2023-10-09T03:18:44;8.20;;;4.03;;
3261;SDS011;1643;47.746;9.000;2023-10-09T03:21:17;5.50;;;4.13;;
3261;SDS011;1643;47.746;9.000;2023-10-09T03:23:45;5.80;;;4.10;;
3261;SDS011;1643;47.746;9.000;2023-10-09T03:26:14;7.33;;;3.93;;
3261;SDS011;1643;47.746;9.000;2023-10-09T03:28:42;8.30;;;4.20;;
3261;SDS011;1643;47.746;9.000;2023-10-09T03:31:12;6.70;;;4.40;;
3261;SDS011;1643;47.746;9.000;2023-10-09T03:33:38;7.73;;;4.27;;
3261;SDS011;1643;47.746;9.000;2023-10-09T03:36:04;7.30;;;4.33;;
3261;SDS011;1643;47.746;9.000;2023-10-09T03:38:34;8.53;;;4.57;;
3261;SDS011;1643;47.746;9.000;2023-10-09T03:41:07;7.97;;;5.13;;
3261;SDS011;1643;47.746;9.000;2023-10-09T03:43:37;8.00;;;4.37;;
3261;SDS011;1643;47.746;9.000;2023-10-09T03:46:09;8.60;;;4.33;;
3261;SDS011;1643;47.746;9.000;2023-10-09T03:48:51;8.90;;;4.90;;
3261;SDS011;1643;47.746;9.000;2023-10-09T03:51:17;10.10;;;5.07;;
3261;SDS011;1643;47.746;9.000;2023-10-09T03:53:47;10.53;;;4.33;;
3261;SDS011;1643;47.746;9.000;2023-10-09T03:56:13;10.13;;;4.90;;
3261;SDS011;1643;47.746;9.000;2023-10-09T03:58:43;8.20;;;3.80;;
3261;SDS011;1643;47.746;9.000;2023-10-09T04:01:13;6.87;;;4.53;;
3261;SDS011;1643;47.746;9.000;2023-10-09T04:03:53;9.07;;;4.80;;
3261;SDS011;1643;47.746;9.000;2023-10-09T04:06:26;8.87;;;4.57;;
3261;SDS011;1643;47.746;9.000;2023-10-09T04:08:58;5.93;;;4.13;;
3261;SDS011;1643;47.746;9.000;2023-10-09T04:11:45;6.10;;;4.33;;
3261;SDS011;1643;47.746;9.000;2023-10-09T04:14:22;5.33;;;4.00;;
3261;SDS011;1643;47.746;9.000;2023-10-09T04:16:58;5.00;;;3.80;;
3261;SDS011;1643;47.746;9.000;2023-10-09T04:19:48;5.53;;;3.03;;
3261;SDS011;1643;47.746;9.000;2023-10-09T04:22:33;4.40;;;3.67;;
3261;SDS011;1643;47.746;9.000;2023-10-09T04:25:04;6.70;;;3.70;;
3261;SDS011;1643;47.746;9.000;2023-10-09T04:27:40;4.90;;;3.87;;
3261;SDS011;1643;47.746;9.000;2023-10-09T04:30:06;5.80;;;3.50;;
3261;SDS011;1643;47.746;9.000;2023-10-09T04:32:32;7.17;;;3.70;;
3261;SDS011;1643;47.746;9.000;2023-10-09T04:34:59;4.90;;;3.03;;
3261;SDS011;1643;47.746;9.000;2023-10-09T04:37:44;4.43;;;3.30;;
3261;SDS011;1643;47.746;9.000;2023-10-09T04:40:17;10.27;;;4.40;;
3261;SDS011;1643;47.746;9.000;2023-10-09T04:43:02;5.83;;;4.10;;
3261;SDS011;1643;47.746;9.000;2023-10-09T04:45:41;7.37;;;3.53;;
3261;SDS011;1643;47.746;9.000;2023-10-09T04:48:09;5.63;;;4.00;;
3261;SDS011;1643;47.746;9.000;2023-10-09T04:50:35;4.40;;;3.27;;
3261;SDS011;1643;47.746;9.000;2023-10-09T04:53:11;6.67;;;3.43;;
3261;SDS011;1643;47.746;9.000;2023-10-09T04:55:43;4.47;;;3.37;;
3261;SDS011;1643;47.746;9.000;2023-10-09T04:58:19;4.93;;;3.53;;
3261;SDS011;1643;47.746;9.000;2023-10-09T05:00:49;3.17;;;2.83;;
3261;SDS011;1643;47.746;9.000;2023-10-09T05:03:24;3.97;;;3.20;;
3261;SDS011;1643;47.746;9.000;2023-10-09T05:05:52;6.00;;;3.30;;
3261;SDS011;1643;47.746;9.000;2023-10-09T05:08:24;5.60;;;3.60;;
3261;SDS011;1643;47.746;9.000;2023-10-09T05:13:33;7.33;;;4.07;;
3261;SDS011;1643;47.746;9.000;2023-10-09T05:16:08;4.90;;;3.70;;
3261;SDS011;1643;47.746;9.000;2023-10-09T05:18:48;7.90;;;4.10;;
3261;SDS011;1643;47.746;9.000;2023-10-09T05:21:34;6.37;;;3.73;;
3261;SDS011;1643;47.746;9.000;2023-10-09T05:24:02;7.03;;;4.17;;
3261;SDS011;1643;47.746;9.000;2023-10-09T05:26:41;7.60;;;4.30;;
3261;SDS011;1643;47.746;9.000;2023-10-09T05:29:21;9.17;;;4.30;;
3261;SDS011;1643;47.746;9.000;2023-10-09T05:31:54;5.10;;;3.70;;
3261;SDS011;1643;47.746;9.000;2023-10-09T05:34:29;10.10;;;3.93;;
3261;SDS011;1643;47.746;9.000;2023-10-09T05:37:21;4.13;;;3.30;;
3261;SDS011;1643;47.746;9.000;2023-10-09T05:40:03;6.00;;;3.30;;
3261;SDS011;1643;47.746;9.000;2023-10-09T05:42:41;7.23;;;4.10;;
3261;SDS011;1643;47.746;9.000;2023-10-09T05:45:08;6.73;;;3.60;;
3261;SDS011;1643;47.746;9.000;2023-10-09T05:47:54;6.07;;;3.67;;
3261;SDS011;1643;47.746;9.000;2023-10-09T05:50:29;5.63;;;4.50;;
3261;SDS011;1643;47.746;9.000;2023-10-09T05:53:03;7.03;;;3.83;;
3261;SDS011;1643;47.746;9.000;2023-10-09T05:55:34;7.63;;;4.63;;
3261;SDS011;1643;47.746;9.000;2023-10-09T05:58:18;10.43;;;5.27;;
3261;SDS011;1643;47.746;9.000;2023-10-09T06:01:02;11.40;;;5.47;;
3261;SDS011;1643;47.746;9.000;2023-10-09T06:03:51;11.10;;;5.30;;
3261;SDS011;1643;47.746;9.000;2023-10-09T06:06:22;11.53;;;5.40;;
3261;SDS011;1643;47.746;9.000;2023-10-09T06:09:10;9.33;;;5.00;;
3261;SDS011;1643;47.746;9.000;2023-10-09T06:11:39;8.30;;;5.30;;
3261;SDS011;1643;47.746;9.000;2023-10-09T06:14:28;9.70;;;4.87;;
3261;SDS011;1643;47.746;9.000;2023-10-09T06:16:54;6.97;;;4.93;;
3261;SDS011;1643;47.746;9.000;2023-10-09T06:19:25;9.90;;;4.77;;
3261;SDS011;1643;47.746;9.000;2023-10-09T06:22:00;8.37;;;4.80;;
3261;SDS011;1643;47.746;9.000;2023-10-09T06:25:04;8.10;;;5.30;;
3261;SDS011;1643;47.746;9.000;2023-10-09T06:27:37;9.00;;;5.00;;
3261;SDS011;1643;47.746;9.000;2023-10-09T06:30:18;7.00;;;5.30;;
3261;SDS011;1643;47.746;9.000;2023-10-09T06:32:44;8.97;;;4.90;;
3261;SDS011;1643;47.746;9.000;2023-10-09T06:35:16;8.10;;;5.10;;
3261;SDS011;1643;47.746;9.000;2023-10-09T06:37:55;11.53;;;5.30;;
3261;SDS011;1643;47.746;9.000;2023-10-09T06:40:28;9.33;;;5.00;;
3261;SDS011;1643;47.746;9.000;2023-10-09T06:43:01;7.97;;;5.23;;
3261;SDS011;1643;47.746;9.000;2023-10-09T06:45:40;8.63;;;5.20;;
3261;SDS011;1643;47.746;9.000;2023-10-09T06:48:09;8.87;;;5.70;;
3261;SDS011;1643;47.746;9.000;2023-10-09T06:51:02;7.80;;;5.40;;
3261;SDS011;1643;47.746;9.000;2023-10-09T06:53:33;10.03;;;5.00;;
3261;SDS011;1643;47.746;9.000;2023-10-09T06:56:17;11.00;;;4.90;;
3261;SDS011;1643;47.746;9.000;2023-10-09T06:59:09;9.23;;;5.50;;
3261;SDS011;1643;47.746;9.000;2023-10-09T07:01:46;9.70;;;5.43;;
3261;SDS011;1643;47.746;9.000;2023-10-09T07:04:33;6.90;;;5.30;;
3261;SDS011;1643;47.746;9.000;2023-10-09T07:07:01;10.23;;;5.40;;
3261;SDS011;1643;47.746;9.000;2023-10-09T07:09:32;6.60;;;4.23;;
3261;SDS011;1643;47.746;9.000;2023-10-09T07:12:08;9.10;;;4.53;;
3261;SDS011;1643;47.746;9.000;2023-10-09T07:15:00;7.03;;;4.70;;
3261;SDS011;1643;47.746;9.000;2023-10-09T07:17:38;7.97;;;4.60;;
3261;SDS011;1643;47.746;9.000;2023-10-09T07:20:04;9.23;;;4.90;;
3261;SDS011;1643;47.746;9.000;2023-10-09T07:22:41;7.20;;;4.87;;
3261;SDS011;1643;47.746;9.000;2023-10-09T07:25:21;7.70;;;5.07;;
3261;SDS011;1643;47.746;9.000;2023-10-09T07:28:06;9.30;;;5.13;;
3261;SDS011;1643;47.746;9.000;2023-10-09T07:30:44;8.60;;;4.97;;
3261;SDS011;1643;47.746;9.000;2023-10-09T07:33:11;11.80;;;5.33;;
3261;SDS011;1643;47.746;9.000;2023-10-09T07:35:37;7.67;;;5.07;;
3261;SDS011;1643;47.746;9.000;2023-10-09T07:38:07;10.93;;;5.40;;
3261;SDS011;1643;47.746;9.000;2023-10-09T07:40:34;13.27;;;5.83;;
3261;SDS011;1643;47.746;9.000;2023-10-09T07:43:25;6.13;;;4.13;;
3261;SDS011;1643;47.746;9.000;2023-10-09T07:46:01;7.80;;;4.47;;
3261;SDS011;1643;47.746;9.000;2023-10-09T07:48:31;7.93;;;4.60;;
3261;SDS011;1643;47.746;9.000;2023-10-09T07:51:15;10.50;;;5.50;;
3261;SDS011;1643;47.746;9.000;2023-10-09T07:53:41;11.33;;;5.07;;
3261;SDS011;1643;47.746;9.000;2023-10-09T07:56:12;11.73;;;5.33;;
3261;SDS011;1643;47.746;9.000;2023-10-09T07:58:46;15.03;;;6.00;;
3261;SDS011;1643;47.746;9.000;2023-10-09T08:01:13;15.53;;;6.43;;
3261;SDS011;1643;47.746;9.000;2023-10-09T08:04:02;10.17;;;5.10;;
3261;SDS011;1643;47.746;9.000;2023-10-09T08:06:36;10.23;;;6.00;;
3261;SDS011;1643;47.746;9.000;2023-10-09T08:09:09;13.37;;;5.73;;
3261;SDS011;1643;47.746;9.000;2023-10-09T08:11:42;10.63;;;5.87;;
3261;SDS011;1643;47.746;9.000;2023-10-09T08:14:33;11.17;;;4.93;;
3261;SDS011;1643;47.746;9.000;2023-10-09T08:16:58;13.30;;;5.17;;
3261;SDS011;1643;47.746;9.000;2023-10-09T08:19:50;11.47;;;4.83;;
3261;SDS011;1643;47.746;9.000;2023-10-09T08:22:22;9.20;;;4.40;;
3261;SDS011;1643;47.746;9.000;2023-10-09T08:24:51;11.77;;;4.43;;
3261;SDS011;1643;47.746;9.000;2023-10-09T08:27:24;9.87;;;5.00;;
3261;SDS011;1643;47.746;9.000;2023-10-09T08:29:59;12.17;;;4.60;;
3261;SDS011;1643;47.746;9.000;2023-10-09T08:32:43;9.77;;;4.70;;
3261;SDS011;1643;47.746;9.000;2023-10-09T08:35:41;7.77;;;3.83;;
3261;SDS011;1643;47.746;9.000;2023-10-09T08:38:13;13.53;;;4.30;;
3261;SDS011;1643;47.746;9.000;2023-10-09T08:40:42;13.27;;;4.00;;
3261;SDS011;1643;47.746;9.000;2023-10-09T08:43:14;8.00;;;3.90;;
3261;SDS011;1643;47.746;9.000;2023-10-09T08:48:25;11.83;;;4.90;;
3261;SDS011;1643;47.746;9.000;2023-10-09T08:50:53;11.77;;;4.20;;
3261;SDS011;1643;47.746;9.000;2023-10-09T08:53:20;10.20;;;4.80;;
3261;SDS011;1643;47.746;9.000;2023-10-09T08:55:46;9.13;;;4.80;;
3261;SDS011;1643;47.746;9.000;2023-10-09T08:58:15;10.33;;;4.13;;
3261;SDS011;1643;47.746;9.000;2023-10-09T09:00:56;7.73;;;4.40;;
3261;SDS011;1643;47.746;9.000;2023-10-09T09:03:23;8.23;;;3.93;;
3261;SDS011;1643;47.746;9.000;2023-10-09T09:05:57;7.53;;;3.73;;
3261;SDS011;1643;47.746;9.000;2023-10-09T09:08:26;9.03;;;3.73;;
3261;SDS011;1643;47.746;9.000;2023-10-09T09:16:39;4.50;;;2.93;;
3261;SDS011;1643;47.746;9.000;2023-10-09T09:19:09;14.83;;;4.63;;
3261;SDS011;1643;47.746;9.000;2023-10-09T09:21:42;10.70;;;4.63;;
3261;SDS011;1643;47.746;9.000;2023-10-09T09:24:16;13.33;;;4.00;;
3261;SDS011;1643;47.746;9.000;2023-10-09T09:26:46;8.77;;;3.40;;
3261;SDS011;1643;47.746;9.000;2023-10-09T09:29:12;9.53;;;3.60;;
3261;SDS011;1643;47.746;9.000;2023-10-09T09:31:51;8.10;;;4.03;;
3261;SDS011;1643;47.746;9.000;2023-10-09T09:34:53;15.53;;;5.00;;
3261;SDS011;1643;47.746;9.000;2023-10-09T09:37:23;10.13;;;4.40;;
3261;SDS011;1643;47.746;9.000;2023-10-09T09:40:15;7.43;;;3.47;;
3261;SDS011;1643;47.746;9.000;2023-10-09T09:42:57;14.43;;;3.70;;
3261;SDS011;1643;47.746;9.000;2023-10-09T09:45:38;11.30;;;3.70;;
3261;SDS011;1643;47.746;9.000;2023-10-09T09:48:11;8.67;;;4.27;;
3261;SDS011;1643;47.746;9.000;2023-10-09T09:50:41;10.80;;;3.17;;
3261;SDS011;1643;47.746;9.000;2023-10-09T09:53:13;10.33;;;3.37;;
3261;SDS011;1643;47.746;9.000;2023-10-09T09:55:44;23.00;;;4.30;;
3261;SDS011;1643;47.746;9.000;2023-10-09T09:58:17;11.43;;;3.83;;
3261;SDS011;1643;47.746;9.000;2023-10-09T10:00:48;14.23;;;4.00;;
3261;SDS011;1643;47.746;9.000;2023-10-09T10:05:51;9.33;;;3.50;;
3261;SDS011;1643;47.746;9.000;2023-10-09T10:08:21;7.57;;;3.50;;
3261;SDS011;1643;47.746;9.000;2023-10-09T10:10:56;14.07;;;4.93;;
3261;SDS011;1643;47.746;9.000;2023-10-09T10:16:13;11.43;;;4.43;;
3261;SDS011;1643;47.746;9.000;2023-10-09T10:18:58;6.30;;;3.77;;
3261;SDS011;1643;47.746;9.000;2023-10-09T10:21:29;9.37;;;4.10;;
3261;SDS011;1643;47.746;9.000;2023-10-09T10:23:58;8.87;;;4.07;;
3261;SDS011;1643;47.746;9.000;2023-10-09T10:26:31;12.80;;;3.30;;
3261;SDS011;1643;47.746;9.000;2023-10-09T10:31:52;8.20;;;3.60;;
3261;SDS011;1643;47.746;9.000;2023-10-09T10:34:19;9.73;;;3.43;;
3261;SDS011;1643;47.746;9.000;2023-10-09T10:36:49;15.47;;;4.10;;
3261;SDS011;1643;47.746;9.000;2023-10-09T10:39:23;10.90;;;4.07;;
3261;SDS011;1643;47.746;9.000;2023-10-09T10:42:10;11.83;;;4.50;;
3261;SDS011;1643;47.746;9.000;2023-10-09T10:44:58;9.97;;;3.60;;
3261;SDS011;1643;47.746;9.000;2023-10-09T10:47:27;10.23;;;3.63;;
3261;SDS011;1643;47.746;9.000;2023-10-09T10:50:00;11.23;;;4.10;;
3261;SDS011;1643;47.746;9.000;2023-10-09T10:53:09;6.60;;;3.43;;
3261;SDS011;1643;47.746;9.000;2023-10-09T10:55:59;7.60;;;3.60;;
3261;SDS011;1643;47.746;9.000;2023-10-09T10:58:39;6.33;;;3.90;;
3261;SDS011;1643;47.746;9.000;2023-10-09T11:01:24;11.57;;;3.40;;
3261;SDS011;1643;47.746;9.000;2023-10-09T11:03:51;10.17;;;4.67;;
3261;SDS011;1643;47.746;9.000;2023-10-09T11:06:28;12.37;;;4.10;;
3261;SDS011;1643;47.746;9.000;2023-10-09T11:09:02;14.60;;;3.90;;
3261;SDS011;1643;47.746;9.000;2023-10-09T11:11:55;13.00;;;4.03;;
3261;SDS011;1643;47.746;9.000;2023-10-09T11:14:44;8.97;;;3.43;;
3261;SDS011;1643;47.746;9.000;2023-10-09T11:17:15;6.77;;;3.43;;
3261;SDS011;1643;47.746;9.000;2023-10-09T11:19:50;9.83;;;3.93;;
3261;SDS011;1643;47.746;9.000;2023-10-09T11:22:17;11.47;;;3.87;;
3261;SDS011;1643;47.746;9.000;2023-10-09T11:24:53;11.43;;;4.80;;
3261;SDS011;1643;47.746;9.000;2023-10-09T11:27:39;6.80;;;3.83;;
3261;SDS011;1643;47.746;9.000;2023-10-09T11:30:15;12.30;;;3.90;;
3261;SDS011;1643;47.746;9.000;2023-10-09T11:33:02;7.83;;;3.47;;
3261;SDS011;1643;47.746;9.000;2023-10-09T11:35:29;7.57;;;3.30;;
3261;SDS011;1643;47.746;9.000;2023-10-09T11:38:00;15.73;;;5.20;;
3261;SDS011;1643;47.746;9.000;2023-10-09T11:40:45;15.50;;;4.50;;
3261;SDS011;1643;47.746;9.000;2023-10-09T11:43:17;15.07;;;4.20;;
3261;SDS011;1643;47.746;9.000;2023-10-09T11:46:08;16.10;;;4.47;;
3261;SDS011;1643;47.746;9.000;2023-10-09T11:49:01;13.10;;;4.63;;
3261;SDS011;1643;47.746;9.000;2023-10-09T11:51:46;11.03;;;4.27;;
3261;SDS011;1643;47.746;9.000;2023-10-09T11:54:30;12.83;;;4.10;;
3261;SDS011;1643;47.746;9.000;2023-10-09T11:56:56;9.80;;;4.30;;
3261;SDS011;1643;47.746;9.000;2023-10-09T11:59:26;10.63;;;3.50;;
3261;SDS011;1643;47.746;9.000;2023-10-09T12:02:02;9.93;;;3.87;;
3261;SDS011;1643;47.746;9.000;2023-10-09T12:04:29;7.63;;;4.20;;
3261;SDS011;1643;47.746;9.000;2023-10-09T12:06:57;13.03;;;4.57;;
3261;SDS011;1643;47.746;9.000;2023-10-09T12:09:32;18.40;;;4.43;;
3261;SDS011;1643;47.746;9.000;2023-10-09T12:12:00;10.70;;;4.03;;
3261;SDS011;1643;47.746;9.000;2023-10-09T12:14:30;10.30;;;3.70;;
3261;SDS011;1643;47.746;9.000;2023-10-09T12:17:00;7.97;;;3.63;;
3261;SDS011;1643;47.746;9.000;2023-10-09T12:19:31;9.60;;;3.33;;
3261;SDS011;1643;47.746;9.000;2023-10-09T12:22:01;10.53;;;4.50;;
3261;SDS011;1643;47.746;9.000;2023-10-09T12:24:31;9.90;;;3.70;;
3261;SDS011;1643;47.746;9.000;2023-10-09T12:26:58;9.20;;;3.63;;
3261;SDS011;1643;47.746;9.000;2023-10-09T12:29:24;11.43;;;3.60;;
3261;SDS011;1643;47.746;9.000;2023-10-09T12:31:55;6.73;;;3.40;;
3261;SDS011;1643;47.746;9.000;2023-10-09T12:34:24;6.77;;;3.60;;
3261;SDS011;1643;47.746;9.000;2023-10-09T12:36:55;6.60;;;2.70;;
3261;SDS011;1643;47.746;9.000;2023-10-09T12:39:21;10.83;;;3.87;;
3261;SDS011;1643;47.746;9.000;2023-10-09T12:41:50;11.60;;;3.70;;
3261;SDS011;1643;47.746;9.000;2023-10-09T12:44:19;8.43;;;3.77;;
3261;SDS011;1643;47.746;9.000;2023-10-09T12:46:47;9.07;;;3.77;;
3261;SDS011;1643;47.746;9.000;2023-10-09T12:49:19;8.03;;;3.60;;
3261;SDS011;1643;47.746;9.000;2023-10-09T12:51:50;10.07;;;4.30;;
3261;SDS011;1643;47.746;9.000;2023-10-09T12:54:16;7.90;;;3.50;;
3261;SDS011;1643;47.746;9.000;2023-10-09T12:56:45;8.10;;;3.33;;
3261;SDS011;1643;47.746;9.000;2023-10-09T12:59:14;7.60;;;3.47;;
3261;SDS011;1643;47.746;9.000;2023-10-09T13:01:43;15.93;;;3.83;;
3261;SDS011;1643;47.746;9.000;2023-10-09T13:04:12;5.90;;;4.07;;
3261;SDS011;1643;47.746;9.000;2023-10-09T13:06:44;11.67;;;3.40;;
3261;SDS011;1643;47.746;9.000;2023-10-09T13:09:10;7.70;;;3.47;;
3261;SDS011;1643;47.746;9.000;2023-10-09T13:11:38;8.47;;;3.27;;
3261;SDS011;1643;47.746;9.000;2023-10-09T13:14:05;9.30;;;3.47;;
3261;SDS011;1643;47.746;9.000;2023-10-09T13:16:41;9.47;;;3.80;;
3261;SDS011;1643;47.746;9.000;2023-10-09T13:19:10;10.07;;;3.40;;
3261;SDS011;1643;47.746;9.000;2023-10-09T13:21:36;7.90;;;3.47;;
3261;SDS011;1643;47.746;9.000;2023-10-09T13:24:05;10.90;;;4.00;;
3261;SDS011;1643;47.746;9.000;2023-10-09T13:26:38;9.60;;;3.30;;
3261;SDS011;1643;47.746;9.000;2023-10-09T13:29:04;8.27;;;3.90;;
3261;SDS011;1643;47.746;9.000;2023-10-09T13:31:34;9.83;;;3.23;;
3261;SDS011;1643;47.746;9.000;2023-10-09T13:34:03;5.47;;;2.67;;
3261;SDS011;1643;47.746;9.000;2023-10-09T13:36:31;11.30;;;3.40;;
3261;SDS011;1643;47.746;9.000;2023-10-09T13:39:05;6.30;;;3.50;;
3261;SDS011;1643;47.746;9.000;2023-10-09T13:42:04;7.40;;;3.63;;
3261;SDS011;1643;47.746;9.000;2023-10-09T13:44:32;7.10;;;4.07;;
3261;SDS011;1643;47.746;9.000;2023-10-09T13:47:00;8.20;;;3.87;;
3261;SDS011;1643;47.746;9.000;2023-10-09T13:49:28;7.50;;;3.43;;
3261;SDS011;1643;47.746;9.000;2023-10-09T13:51:57;7.87;;;4.10;;
3261;SDS011;1643;47.746;9.000;2023-10-09T13:54:24;7.20;;;3.40;;
3261;SDS011;1643;47.746;9.000;2023-10-09T13:57:01;7.30;;;3.17;;
3261;SDS011;1643;47.746;9.000;2023-10-09T13:59:29;5.90;;;3.23;;
3261;SDS011;1643;47.746;9.000;2023-10-09T14:01:55;8.30;;;3.33;;
3261;SDS011;1643;47.746;9.000;2023-10-09T14:04:22;8.40;;;3.50;;
3261;SDS011;1643;47.746;9.000;2023-10-09T14:06:48;8.70;;;3.90;;
3261;SDS011;1643;47.746;9.000;2023-10-09T14:09:21;6.07;;;3.10;;
3261;SDS011;1643;47.746;9.000;2023-10-09T14:12:17;10.30;;;3.30;;
3261;SDS011;1643;47.746;9.000;2023-10-09T14:14:44;10.10;;;3.80;;
3261;SDS011;1643;47.746;9.000;2023-10-09T14:17:14;9.93;;;3.50;;
3261;SDS011;1643;47.746;9.000;2023-10-09T14:19:44;8.80;;;3.60;;
3261;SDS011;1643;47.746;9.000;2023-10-09T14:22:15;14.50;;;3.33;;
3261;SDS011;1643;47.746;9.000;2023-10-09T14:24:42;5.93;;;2.90;;
3261;SDS011;1643;47.746;9.000;2023-10-09T14:27:12;8.50;;;4.17;;
3261;SDS011;1643;47.746;9.000;2023-10-09T14:29:47;9.00;;;3.70;;
3261;SDS011;1643;47.746;9.000;2023-10-09T14:32:13;7.50;;;3.40;;
3261;SDS011;1643;47.746;9.000;2023-10-09T14:34:40;7.50;;;3.47;;
3261;SDS011;1643;47.746;9.000;2023-10-09T14:37:16;8.40;;;3.20;;
3261;SDS011;1643;47.746;9.000;2023-10-09T14:39:44;7.87;;;4.40;;
3261;SDS011;1643;47.746;9.000;2023-10-09T14:42:16;8.30;;;3.40;;
3261;SDS011;1643;47.746;9.000;2023-10-09T14:44:42;10.00;;;3.77;;
3261;SDS011;1643;47.746;9.000;2023-10-09T14:47:10;7.70;;;3.43;;
3261;SDS011;1643;47.746;9.000;2023-10-09T14:49:36;8.27;;;4.67;;
3261;SDS011;1643;47.746;9.000;2023-10-09T14:52:12;9.57;;;3.87;;
3261;SDS011;1643;47.746;9.000;2023-10-09T14:54:42;7.27;;;4.20;;
3261;SDS011;1643;47.746;9.000;2023-10-09T14:57:09;16.73;;;4.10;;
3261;SDS011;1643;47.746;9.000;2023-10-09T14:59:36;9.73;;;3.87;;
3261;SDS011;1643;47.746;9.000;2023-10-09T15:02:02;15.70;;;4.20;;
3261;SDS011;1643;47.746;9.000;2023-10-09T15:04:30;11.30;;;4.60;;
3261;SDS011;1643;47.746;9.000;2023-10-09T15:06:56;11.10;;;4.43;;
3261;SDS011;1643;47.746;9.000;2023-10-09T15:09:22;6.97;;;3.70;;
3261;SDS011;1643;47.746;9.000;2023-10-09T15:11:50;13.47;;;4.00;;
3261;SDS011;1643;47.746;9.000;2023-10-09T15:14:17;13.13;;;4.87;;
3261;SDS011;1643;47.746;9.000;2023-10-09T15:16:45;15.10;;;4.57;;
3261;SDS011;1643;47.746;9.000;2023-10-09T15:19:15;12.03;;;5.23;;
3261;SDS011;1643;47.746;9.000;2023-10-09T15:21:42;7.17;;;4.13;;
3261;SDS011;1643;47.746;9.000;2023-10-09T15:24:14;14.90;;;4.07;;
3261;SDS011;1643;47.746;9.000;2023-10-09T15:26:50;8.00;;;4.20;;
3261;SDS011;1643;47.746;9.000;2023-10-09T15:29:21;8.37;;;3.50;;
3261;SDS011;1643;47.746;9.000;2023-10-09T15:31:48;10.57;;;4.53;;
3261;SDS011;1643;47.746;9.000;2023-10-09T15:34:15;8.70;;;3.80;;
3261;SDS011;1643;47.746;9.000;2023-10-09T15:36:43;11.87;;;4.03;;
3261;SDS011;1643;47.746;9.000;2023-10-09T15:39:12;20.07;;;4.90;;
3261;SDS011;1643;47.746;9.000;2023-10-09T15:41:38;12.67;;;4.33;;
3261;SDS011;1643;47.746;9.000;2023-10-09T15:44:04;12.33;;;4.30;;
3261;SDS011;1643;47.746;9.000;2023-10-09T15:46:31;14.50;;;4.80;;
3261;SDS011;1643;47.746;9.000;2023-10-09T15:49:00;10.47;;;4.90;;
3261;SDS011;1643;47.746;9.000;2023-10-09T15:51:29;11.57;;;5.80;;
3261;SDS011;1643;47.746;9.000;2023-10-09T15:53:55;9.23;;;3.57;;
3261;SDS011;1643;47.746;9.000;2023-10-09T15:56:21;6.93;;;4.37;;
3261;SDS011;1643;47.746;9.000;2023-10-09T15:58:48;13.30;;;5.10;;
3261;SDS011;1643;47.746;9.000;2023-10-09T16:01:14;7.70;;;4.43;;
3261;SDS011;1643;47.746;9.000;2023-10-09T16:03:43;10.73;;;5.10;;
3261;SDS011;1643;47.746;9.000;2023-10-09T16:06:12;8.70;;;4.47;;
3261;SDS011;1643;47.746;9.000;2023-10-09T16:08:41;11.63;;;4.73;;